Terminal Aerodrome Forecast
Issued by NWS Charleston, SC

Home | Current Version | Previous Version | Text Only | Print | Product List | Glossary On
Versions: 1 2 3 4 5 6 7 8 9 10 11 12 13 14 15 16 17 18
000
FTUS42 KCHS 272328
TAFSAV
TAF
KSAV 272328Z 2800/2824 07007KT P6SM BKN200
     FM280600 03012G18KT P6SM SCT050 BKN100
     FM281200 03012G20KT P6SM OVC040
     FM282000 04012G18KT P6SM SCT020 BKN040=

USA.gov is the U.S. government's official web portal to all federal, state and local government web resources and services.